createdAt,value
2018-07-31T00:00:55.336Z,970.75
2018-07-31T00:01:55.355Z,970.70
2018-07-31T00:02:55.406Z,970.72
2018-07-31T00:03:55.459Z,970.73
2018-07-31T00:04:55.511Z,970.73
2018-07-31T00:05:55.601Z,970.72
2018-07-31T00:06:55.614Z,970.71
2018-07-31T00:07:55.666Z,970.69
2018-07-31T00:08:55.716Z,970.69
2018-07-31T00:09:55.767Z,970.70
2018-07-31T00:10:55.850Z,970.70
2018-07-31T00:11:55.872Z,970.70
2018-07-31T00:12:55.924Z,970.76
2018-07-31T00:13:55.977Z,970.68
2018-07-31T00:14:56.026Z,970.70
2018-07-31T00:15:56.104Z,970.70
2018-07-31T00:16:56.132Z,970.70
2018-07-31T00:17:56.352Z,970.67
2018-07-31T00:18:56.233Z,970.64
2018-07-31T00:19:56.285Z,970.61
2018-07-31T00:20:56.340Z,970.59
2018-07-31T00:21:56.429Z,970.58
2018-07-31T00:22:56.441Z,970.56
2018-07-31T00:23:56.493Z,970.58
2018-07-31T00:24:56.544Z,970.55
2018-07-31T00:25:56.597Z,970.56
2018-07-31T00:26:56.679Z,970.55
2018-07-31T00:27:56.699Z,970.58
2018-07-31T00:28:56.751Z,970.55
2018-07-31T00:29:56.801Z,970.58
2018-07-31T00:30:56.853Z,970.57
2018-07-31T00:31:56.929Z,970.63
2018-07-31T00:32:56.965Z,970.61
2018-07-31T00:33:57.008Z,970.60
2018-07-31T00:34:57.083Z,970.62
2018-07-31T00:35:57.111Z,970.66
2018-07-31T00:36:57.164Z,970.61
2018-07-31T00:37:57.240Z,970.63
2018-07-31T00:38:57.268Z,970.66
2018-07-31T00:39:57.322Z,970.64
2018-07-31T00:40:57.369Z,970.67
2018-07-31T00:41:57.422Z,970.64
2018-07-31T00:42:57.499Z,970.64
2018-07-31T00:43:57.523Z,970.62
2018-07-31T00:44:57.602Z,970.62
2018-07-31T00:45:57.628Z,970.65
2018-07-31T00:46:57.680Z,970.62
2018-07-31T00:47:57.731Z,970.60
2018-07-31T00:48:57.786Z,970.59
2018-07-31T00:49:57.858Z,970.61
2018-07-31T00:50:57.889Z,970.57
2018-07-31T00:51:57.938Z,970.54
2018-07-31T00:52:58.026Z,970.58
2018-07-31T00:53:58.043Z,970.56
2018-07-31T00:54:58.091Z,970.50
2018-07-31T00:55:58.145Z,970.57
2018-07-31T00:56:58.198Z,970.56
2018-07-31T00:57:58.275Z,970.59
2018-07-31T00:58:58.297Z,970.55
2018-07-31T00:59:58.376Z,970.57
2018-07-31T01:00:58.401Z,970.57
2018-07-31T01:01:58.453Z,970.58
2018-07-31T01:02:58.510Z,970.54
2018-07-31T01:03:58.557Z,970.55
2018-07-31T01:04:58.642Z,970.52
2018-07-31T01:05:58.660Z,970.53
2018-07-31T01:06:58.711Z,970.52
2018-07-31T01:07:58.763Z,970.51
2018-07-31T01:08:58.815Z,970.54
2018-07-31T01:09:58.909Z,970.53
2018-07-31T01:10:58.948Z,970.53
2018-07-31T01:11:58.970Z,970.50
2018-07-31T01:12:59.022Z,970.50
2018-07-31T01:13:59.070Z,970.48
2018-07-31T01:14:59.147Z,970.52
2018-07-31T01:15:59.199Z,970.50
2018-07-31T01:16:59.227Z,970.45
2018-07-31T01:17:59.276Z,970.46
2018-07-31T01:18:59.332Z,970.48
2018-07-31T01:19:59.383Z,970.50
2018-07-31T01:20:59.463Z,970.51
2018-07-31T01:21:59.484Z,970.50
2018-07-31T01:22:59.535Z,970.51
2018-07-31T01:23:59.590Z,970.54
2018-07-31T01:24:59.643Z,970.50
2018-07-31T01:25:59.713Z,970.50
2018-07-31T01:26:59.742Z,970.44
2018-07-31T01:27:59.795Z,970.46
2018-07-31T01:28:59.847Z,970.45
2018-07-31T01:29:59.897Z,970.43
2018-07-31T01:30:59.971Z,970.43
2018-07-31T01:32:00.000Z,970.40
2018-07-31T01:33:00.052Z,970.39
2018-07-31T01:34:00.106Z,970.40
2018-07-31T01:35:00.154Z,970.40
2018-07-31T01:36:00.230Z,970.38
2018-07-31T01:37:01.047Z,970.40
2018-07-31T01:38:00.309Z,970.37
2018-07-31T01:39:00.363Z,970.40
2018-07-31T01:40:00.415Z,970.37
2018-07-31T01:41:00.497Z,970.37
2018-07-31T01:42:00.526Z,970.37
2018-07-31T01:43:00.569Z,970.36
2018-07-31T01:44:00.623Z,970.36
2018-07-31T01:45:00.675Z,970.37
2018-07-31T01:46:00.793Z,970.37
2018-07-31T01:47:00.774Z,970.37
2018-07-31T01:48:00.826Z,970.36
2018-07-31T01:49:00.879Z,970.37
2018-07-31T01:50:00.936Z,970.36
2018-07-31T01:51:01.014Z,970.35
2018-07-31T01:52:01.034Z,970.37
2018-07-31T01:53:01.085Z,970.35
2018-07-31T01:54:01.137Z,970.31
2018-07-31T01:55:01.188Z,970.33
2018-07-31T01:56:01.262Z,970.31
2018-07-31T01:57:01.290Z,970.28
2018-07-31T01:58:01.381Z,970.30
2018-07-31T01:59:01.399Z,970.30
2018-07-31T02:00:01.448Z,970.34
2018-07-31T02:01:01.498Z,970.32
2018-07-31T02:02:01.549Z,970.31
2018-07-31T02:03:01.629Z,970.32
2018-07-31T02:04:01.653Z,970.30
2018-07-31T02:05:01.704Z,970.31
2018-07-31T02:06:01.755Z,970.32
2018-07-31T02:07:01.819Z,970.28
2018-07-31T02:08:01.881Z,970.30
2018-07-31T02:09:01.913Z,970.28
2018-07-31T02:10:01.967Z,970.25
2018-07-31T02:11:02.018Z,970.25
2018-07-31T02:12:02.070Z,970.24
2018-07-31T02:13:02.149Z,970.23
2018-07-31T02:14:02.196Z,970.22
2018-07-31T02:15:02.227Z,970.22
2018-07-31T02:16:02.273Z,970.20
2018-07-31T02:17:02.324Z,970.20
2018-07-31T02:18:02.378Z,970.21
2018-07-31T02:19:02.451Z,970.25
2018-07-31T02:20:02.486Z,970.24
2018-07-31T02:21:02.531Z,970.21
2018-07-31T02:22:02.582Z,970.21
2018-07-31T02:23:02.661Z,970.23
2018-07-31T02:24:02.688Z,970.21
2018-07-31T02:25:02.744Z,970.24
2018-07-31T02:26:02.790Z,970.21
2018-07-31T02:27:02.842Z,970.22
2018-07-31T02:28:02.940Z,970.22
2018-07-31T02:29:02.948Z,970.23
2018-07-31T02:30:03.020Z,970.22
2018-07-31T02:31:03.052Z,970.22
2018-07-31T02:32:03.102Z,970.24
2018-07-31T02:33:03.155Z,970.27
2018-07-31T02:34:03.206Z,970.30
2018-07-31T02:35:03.284Z,970.30
2018-07-31T02:36:03.314Z,970.32
2018-07-31T02:37:03.362Z,970.33
2018-07-31T02:38:03.448Z,970.32
2018-07-31T02:39:03.464Z,970.26
2018-07-31T02:40:03.517Z,970.31
2018-07-31T02:41:03.567Z,970.26
2018-07-31T02:42:03.622Z,970.30
2018-07-31T02:43:03.700Z,970.28
2018-07-31T02:44:03.722Z,970.26
2018-07-31T02:45:03.777Z,970.26
2018-07-31T02:46:03.831Z,970.24
2018-07-31T02:47:03.880Z,970.26
2018-07-31T02:48:03.971Z,970.25
2018-07-31T02:49:03.985Z,970.24
2018-07-31T02:50:04.036Z,970.20
2018-07-31T02:51:04.091Z,970.21
2018-07-31T02:52:04.141Z,970.19
2018-07-31T02:53:04.217Z,970.22
2018-07-31T02:54:04.243Z,970.19
2018-07-31T02:55:04.308Z,970.20
2018-07-31T02:56:04.373Z,970.20
2018-07-31T02:57:04.399Z,970.18
2018-07-31T02:58:04.508Z,970.15
2018-07-31T02:59:04.508Z,970.13
2018-07-31T03:00:04.554Z,970.14
2018-07-31T03:01:04.633Z,970.11
2018-07-31T03:02:04.657Z,970.14
2018-07-31T03:03:04.717Z,970.15
2018-07-31T03:04:04.762Z,970.14
2018-07-31T03:05:04.816Z,970.16
2018-07-31T03:06:04.888Z,970.15
2018-07-31T03:07:04.947Z,970.17
2018-07-31T03:08:04.986Z,970.15
2018-07-31T03:09:05.021Z,970.20
2018-07-31T03:10:05.082Z,970.22
2018-07-31T03:11:05.156Z,970.18
2018-07-31T03:12:05.200Z,970.23
2018-07-31T03:13:05.229Z,970.19
2018-07-31T03:14:05.280Z,970.21
2018-07-31T03:15:05.334Z,970.18
2018-07-31T03:16:05.384Z,970.20
2018-07-31T03:17:05.459Z,970.23
2018-07-31T03:18:05.488Z,970.19
2018-07-31T03:19:05.542Z,970.18
2018-07-31T03:20:05.592Z,970.20
2018-07-31T03:21:05.648Z,970.22
2018-07-31T03:22:05.728Z,970.20
2018-07-31T03:23:05.748Z,970.22
2018-07-31T03:24:05.801Z,970.19
2018-07-31T03:25:05.853Z,970.22
2018-07-31T03:26:05.909Z,970.20
2018-07-31T03:27:05.989Z,970.24
2018-07-31T03:28:06.053Z,970.20
2018-07-31T03:29:06.059Z,970.19
2018-07-31T03:30:06.112Z,970.21
2018-07-31T03:31:06.165Z,970.25
2018-07-31T03:32:06.254Z,970.23
2018-07-31T03:33:06.267Z,970.28
2018-07-31T03:34:06.317Z,970.27
2018-07-31T03:35:06.372Z,970.30
2018-07-31T03:36:06.425Z,970.31
2018-07-31T03:37:06.526Z,970.33
2018-07-31T03:38:06.525Z,970.32
2018-07-31T03:39:06.579Z,970.37
2018-07-31T03:40:06.630Z,970.32
2018-07-31T03:41:06.683Z,970.35
2018-07-31T03:42:06.755Z,970.35
2018-07-31T03:43:06.809Z,970.37
2018-07-31T03:44:06.837Z,970.30
2018-07-31T03:45:06.889Z,970.37
2018-07-31T03:46:06.953Z,970.35
2018-07-31T03:47:06.993Z,970.37
2018-07-31T03:48:07.070Z,970.34
2018-07-31T03:49:07.096Z,970.34
2018-07-31T03:50:07.190Z,970.36
2018-07-31T03:51:07.197Z,970.35
2018-07-31T03:52:07.254Z,970.35
2018-07-31T03:53:07.336Z,970.35
2018-07-31T03:54:07.365Z,970.34
2018-07-31T03:55:07.413Z,970.32
2018-07-31T03:56:07.459Z,970.35
2018-07-31T03:57:07.510Z,970.34
2018-07-31T03:58:07.597Z,970.36
2018-07-31T03:59:07.613Z,970.33
2018-07-31T04:00:07.670Z,970.34
2018-07-31T04:01:07.718Z,970.36
2018-07-31T04:02:07.769Z,970.37
2018-07-31T04:03:07.849Z,970.36
2018-07-31T04:04:07.870Z,970.37
2018-07-31T04:05:07.923Z,970.37
2018-07-31T04:06:07.975Z,970.42
2018-07-31T04:07:08.028Z,970.40
2018-07-31T04:08:08.102Z,970.40
2018-07-31T04:09:08.132Z,970.41
2018-07-31T04:10:08.203Z,970.40
2018-07-31T04:11:08.234Z,970.35
2018-07-31T04:12:08.286Z,970.38
2018-07-31T04:13:08.340Z,970.41
2018-07-31T04:14:08.411Z,970.41
2018-07-31T04:15:08.465Z,970.43
2018-07-31T04:16:08.497Z,970.48
2018-07-31T04:17:08.599Z,970.45
2018-07-31T04:18:08.597Z,970.50
2018-07-31T04:19:08.648Z,970.47
2018-07-31T04:20:08.733Z,970.50
2018-07-31T04:21:08.750Z,970.52
2018-07-31T04:22:08.802Z,970.54
2018-07-31T04:23:08.857Z,970.55
2018-07-31T04:24:08.908Z,970.56
2018-07-31T04:25:08.983Z,970.54
2018-07-31T04:26:09.010Z,970.53
2018-07-31T04:27:09.059Z,970.52
2018-07-31T04:28:09.110Z,970.54
2018-07-31T04:29:09.164Z,970.58
2018-07-31T04:30:09.258Z,970.55
2018-07-31T04:31:09.266Z,970.54
2018-07-31T04:32:09.321Z,970.58
2018-07-31T04:33:09.369Z,970.54
2018-07-31T04:34:09.419Z,970.58
2018-07-31T04:35:09.516Z,970.61
2018-07-31T04:36:09.550Z,970.62
2018-07-31T04:37:09.575Z,970.66
2018-07-31T04:38:09.626Z,970.66
2018-07-31T04:39:09.678Z,970.69
2018-07-31T04:40:09.772Z,970.71
2018-07-31T04:41:09.820Z,970.71
2018-07-31T04:42:09.885Z,970.73
2018-07-31T04:43:09.884Z,970.74
2018-07-31T04:44:09.946Z,970.71
2018-07-31T04:45:10.030Z,970.72
2018-07-31T04:46:10.039Z,970.70
2018-07-31T04:47:10.089Z,970.72
2018-07-31T04:48:10.142Z,970.74
2018-07-31T04:49:10.193Z,970.72
2018-07-31T04:50:10.321Z,970.77
2018-07-31T04:51:10.323Z,970.78
2018-07-31T04:52:10.348Z,970.77
2018-07-31T04:53:10.404Z,970.77
2018-07-31T04:54:10.449Z,970.78
2018-07-31T04:55:10.501Z,970.78
2018-07-31T04:56:10.578Z,970.76
2018-07-31T04:57:10.607Z,970.72
2018-07-31T04:58:10.658Z,970.76
2018-07-31T04:59:10.708Z,970.77
2018-07-31T05:00:10.760Z,970.76
2018-07-31T05:01:10.835Z,970.75
2018-07-31T05:02:10.890Z,970.72
2018-07-31T05:03:10.914Z,970.74
2018-07-31T05:04:10.965Z,970.74
2018-07-31T05:05:11.018Z,970.71
2018-07-31T05:06:11.071Z,970.75
2018-07-31T05:07:11.145Z,970.74
2018-07-31T05:08:11.174Z,970.78
2018-07-31T05:09:11.224Z,970.76
2018-07-31T05:10:11.276Z,970.78
2018-07-31T05:11:11.335Z,970.76
2018-07-31T05:12:11.411Z,970.75
2018-07-31T05:13:11.430Z,970.76
2018-07-31T05:14:11.481Z,970.81
2018-07-31T05:15:11.533Z,970.77
2018-07-31T05:16:11.587Z,970.77
2018-07-31T05:17:11.669Z,970.76
2018-07-31T05:18:11.715Z,970.79
2018-07-31T05:19:11.742Z,970.80
2018-07-31T05:20:11.793Z,970.79
2018-07-31T05:21:11.845Z,970.83
2018-07-31T05:22:11.931Z,970.85
2018-07-31T05:23:11.950Z,970.85
2018-07-31T05:24:12.001Z,970.88
2018-07-31T05:25:12.097Z,970.89
2018-07-31T05:26:12.105Z,970.93
2018-07-31T05:27:12.185Z,970.91
2018-07-31T05:28:12.238Z,970.94
2018-07-31T05:29:12.265Z,970.95
2018-07-31T05:30:12.315Z,970.96
2018-07-31T05:31:12.423Z,970.98
2018-07-31T05:32:12.420Z,971.03
2018-07-31T05:33:12.677Z,971.00
2018-07-31T05:34:12.549Z,970.98
2018-07-31T05:35:12.578Z,971.00
2018-07-31T05:36:12.623Z,971.05
2018-07-31T05:37:12.676Z,971.03
2018-07-31T05:38:12.727Z,971.06
2018-07-31T05:39:12.809Z,971.09
2018-07-31T05:40:12.832Z,971.08
2018-07-31T05:41:12.891Z,971.05
2018-07-31T05:42:12.937Z,971.05
2018-07-31T05:43:12.988Z,971.04
2018-07-31T05:44:13.077Z,971.04
2018-07-31T05:45:13.092Z,971.06
2018-07-31T05:46:13.206Z,971.05
2018-07-31T05:47:13.196Z,971.05
2018-07-31T05:48:13.248Z,971.06
2018-07-31T05:49:13.331Z,971.07
2018-07-31T05:50:13.354Z,971.08
2018-07-31T05:51:13.405Z,971.08
2018-07-31T05:52:13.458Z,971.10
2018-07-31T05:53:13.510Z,971.14
2018-07-31T05:54:13.584Z,971.17
2018-07-31T05:55:13.638Z,971.17
2018-07-31T05:56:13.666Z,971.16
2018-07-31T05:57:13.721Z,971.14
2018-07-31T05:58:13.767Z,971.17
2018-07-31T05:59:13.820Z,971.19
2018-07-31T06:00:13.898Z,971.19
2018-07-31T06:01:13.927Z,971.22
2018-07-31T06:02:13.984Z,971.18
2018-07-31T06:03:14.029Z,971.20
2018-07-31T06:04:14.082Z,971.20
2018-07-31T06:05:14.162Z,971.25
2018-07-31T06:06:14.186Z,971.21
2018-07-31T06:07:14.247Z,971.19
2018-07-31T06:08:14.290Z,971.18
2018-07-31T06:09:14.352Z,971.16
2018-07-31T06:10:14.418Z,971.18
2018-07-31T06:11:14.462Z,971.19
2018-07-31T06:12:14.501Z,971.19
2018-07-31T06:13:14.552Z,971.20
2018-07-31T06:14:14.603Z,971.21
2018-07-31T06:15:14.737Z,971.22
2018-07-31T06:16:14.709Z,971.21
2018-07-31T06:17:14.761Z,971.23
2018-07-31T06:18:14.811Z,971.25
2018-07-31T06:19:14.867Z,971.21
2018-07-31T06:20:14.952Z,971.23
2018-07-31T06:21:14.970Z,971.24
2018-07-31T06:22:15.032Z,971.23
2018-07-31T06:23:15.074Z,971.23
2018-07-31T06:24:15.126Z,971.24
2018-07-31T06:25:15.203Z,971.21
2018-07-31T06:26:15.230Z,971.25
2018-07-31T06:27:15.283Z,971.21
2018-07-31T06:28:15.339Z,971.24
2018-07-31T06:29:15.393Z,971.23
2018-07-31T06:30:15.469Z,971.27
2018-07-31T06:31:15.521Z,971.23
2018-07-31T06:32:15.548Z,971.23
2018-07-31T06:33:15.602Z,971.30
2018-07-31T06:34:15.651Z,971.27
2018-07-31T06:35:15.702Z,971.26
2018-07-31T06:36:15.784Z,971.24
2018-07-31T06:37:15.812Z,971.29
2018-07-31T06:38:15.860Z,971.24
2018-07-31T06:39:15.913Z,971.25
2018-07-31T06:40:15.966Z,971.27
2018-07-31T06:41:16.043Z,971.28
2018-07-31T06:42:16.070Z,971.29
2018-07-31T06:43:16.125Z,971.30
2018-07-31T06:44:16.179Z,971.33
2018-07-31T06:45:16.233Z,971.34
2018-07-31T06:46:16.321Z,971.36
2018-07-31T06:47:16.335Z,971.36
2018-07-31T06:48:16.388Z,971.35
2018-07-31T06:49:16.455Z,971.36
2018-07-31T06:50:16.496Z,971.35
2018-07-31T06:51:16.588Z,971.38
2018-07-31T06:52:16.599Z,971.36
2018-07-31T06:53:16.652Z,971.34
2018-07-31T06:54:16.707Z,971.35
2018-07-31T06:55:16.759Z,971.40
2018-07-31T06:56:16.846Z,971.39
2018-07-31T06:57:16.864Z,971.41
2018-07-31T06:58:16.917Z,971.36
2018-07-31T06:59:16.972Z,971.38
2018-07-31T07:00:17.032Z,971.40
2018-07-31T07:01:17.103Z,971.38
2018-07-31T07:02:17.160Z,971.38
2018-07-31T07:03:17.187Z,971.40
2018-07-31T07:04:17.240Z,971.39
2018-07-31T07:05:17.296Z,971.41
2018-07-31T07:06:17.348Z,971.43
2018-07-31T07:07:17.427Z,971.47
2018-07-31T07:08:17.455Z,971.44
2018-07-31T07:09:17.551Z,971.44
2018-07-31T07:10:17.567Z,971.43
2018-07-31T07:11:17.618Z,971.44
2018-07-31T07:12:17.703Z,971.45
2018-07-31T07:13:17.730Z,971.46
2018-07-31T07:14:17.782Z,971.46
2018-07-31T07:15:17.836Z,971.46
2018-07-31T07:16:17.892Z,971.53
2018-07-31T07:17:17.987Z,971.52
2018-07-31T07:18:18.002Z,971.48
2018-07-31T07:19:18.056Z,971.49
2018-07-31T07:20:18.115Z,971.46
2018-07-31T07:21:18.187Z,971.48
2018-07-31T07:22:18.272Z,971.49
2018-07-31T07:23:18.278Z,971.47
2018-07-31T07:24:18.336Z,971.49
2018-07-31T07:25:18.390Z,971.50
2018-07-31T07:26:18.443Z,971.49
2018-07-31T07:27:18.526Z,971.48
2018-07-31T07:28:18.583Z,971.50
2018-07-31T07:29:18.612Z,971.51
2018-07-31T07:30:18.670Z,971.49
2018-07-31T07:31:18.724Z,971.47
2018-07-31T07:32:18.782Z,971.53
2018-07-31T07:33:18.858Z,971.50
2018-07-31T07:34:18.891Z,971.55
2018-07-31T07:35:18.953Z,971.56
2018-07-31T07:36:19.006Z,971.56
2018-07-31T07:37:19.061Z,971.57
2018-07-31T07:38:19.140Z,971.57
2018-07-31T07:39:19.174Z,971.57
2018-07-31T07:40:19.255Z,971.59
2018-07-31T07:41:19.286Z,971.55
2018-07-31T07:42:19.342Z,971.59
2018-07-31T07:43:19.427Z,971.56
2018-07-31T07:44:19.455Z,971.58
2018-07-31T07:45:19.512Z,971.56
2018-07-31T07:46:19.566Z,971.55
2018-07-31T07:47:19.622Z,971.58
2018-07-31T07:48:19.735Z,971.58
2018-07-31T07:49:19.740Z,971.55
2018-07-31T07:50:19.792Z,971.56
2018-07-31T07:51:19.848Z,971.50
2018-07-31T07:52:19.904Z,971.53
2018-07-31T07:53:19.988Z,971.54
2018-07-31T07:54:20.111Z,971.52
2018-07-31T07:55:20.075Z,971.54
2018-07-31T07:56:20.133Z,971.56
2018-07-31T07:57:20.189Z,971.54
2018-07-31T07:58:20.242Z,971.55
2018-07-31T07:59:20.322Z,971.54
2018-07-31T08:00:20.354Z,971.58
2018-07-31T08:01:20.411Z,971.59
2018-07-31T08:02:20.466Z,971.60
2018-07-31T08:03:20.525Z,971.59
2018-07-31T08:04:20.612Z,971.64
2018-07-31T08:05:20.635Z,971.63
2018-07-31T08:06:20.694Z,971.67
2018-07-31T08:07:20.748Z,971.66
2018-07-31T08:08:20.804Z,971.67
2018-07-31T08:09:20.895Z,971.65
2018-07-31T08:10:20.919Z,971.70
2018-07-31T08:11:20.976Z,971.71
2018-07-31T08:12:21.031Z,971.68
2018-07-31T08:13:21.090Z,971.71
2018-07-31T08:14:21.169Z,971.69
2018-07-31T08:15:21.226Z,971.70
2018-07-31T08:16:21.256Z,971.73
2018-07-31T08:17:21.314Z,971.72
2018-07-31T08:18:21.377Z,971.74
2018-07-31T08:19:21.427Z,971.77
2018-07-31T08:20:21.558Z,971.74
2018-07-31T08:21:21.543Z,971.73
2018-07-31T08:22:21.596Z,971.77
2018-07-31T08:23:21.669Z,971.72
2018-07-31T08:24:21.710Z,971.72
2018-07-31T08:25:21.792Z,971.70
2018-07-31T08:26:21.820Z,971.73
2018-07-31T08:27:21.881Z,971.69
2018-07-31T08:28:21.937Z,971.66
2018-07-31T08:29:21.994Z,971.66
2018-07-31T08:30:22.076Z,971.68
2018-07-31T08:31:22.110Z,971.74
2018-07-31T08:32:22.167Z,971.72
2018-07-31T08:33:22.272Z,971.75
2018-07-31T08:34:22.277Z,971.68
2018-07-31T08:35:22.360Z,971.74
2018-07-31T08:36:22.394Z,971.72
2018-07-31T08:37:22.449Z,971.72
2018-07-31T08:38:22.506Z,971.77
2018-07-31T08:39:22.564Z,971.72
2018-07-31T08:40:22.685Z,971.75
2018-07-31T08:41:22.746Z,971.70
2018-07-31T08:42:22.757Z,971.76
2018-07-31T08:43:22.792Z,971.74
2018-07-31T08:44:22.849Z,971.80
2018-07-31T08:45:22.955Z,971.81
2018-07-31T08:46:22.967Z,971.82
2018-07-31T08:47:23.022Z,971.79
2018-07-31T08:48:23.080Z,971.79
2018-07-31T08:49:23.141Z,971.80
2018-07-31T08:50:23.218Z,971.82
2018-07-31T08:51:23.279Z,971.81
2018-07-31T08:52:23.313Z,971.80
2018-07-31T08:53:23.370Z,971.80
2018-07-31T08:54:23.428Z,971.81
2018-07-31T08:55:23.483Z,971.79
2018-07-31T08:56:23.564Z,971.80
2018-07-31T08:57:23.602Z,971.82
2018-07-31T08:58:23.659Z,971.81
2018-07-31T08:59:23.723Z,971.78
2018-07-31T09:00:23.775Z,971.77
2018-07-31T09:01:23.859Z,971.79
2018-07-31T09:02:23.893Z,971.79
2018-07-31T09:03:23.950Z,971.79
2018-07-31T09:04:24.006Z,971.81
2018-07-31T09:05:24.065Z,971.82
2018-07-31T09:06:24.152Z,971.79
2018-07-31T09:07:24.182Z,971.79
2018-07-31T09:08:24.317Z,971.84
2018-07-31T09:09:24.295Z,971.80
2018-07-31T09:10:24.352Z,971.84
2018-07-31T09:11:24.444Z,971.86
2018-07-31T09:12:24.469Z,971.85
2018-07-31T09:13:24.525Z,971.79
2018-07-31T09:14:24.587Z,971.80
2018-07-31T09:15:24.642Z,971.79
2018-07-31T09:16:24.722Z,971.78
2018-07-31T09:17:24.789Z,971.83
2018-07-31T09:18:24.816Z,971.76
2018-07-31T09:19:24.879Z,971.84
2018-07-31T09:20:24.930Z,971.74
2018-07-31T09:21:24.993Z,971.81
2018-07-31T09:22:25.104Z,971.78
2018-07-31T09:23:25.105Z,971.76
2018-07-31T09:24:25.212Z,971.70
2018-07-31T09:25:25.222Z,971.72
2018-07-31T09:26:25.283Z,971.76
2018-07-31T09:27:25.367Z,971.76
2018-07-31T09:28:25.399Z,971.73
2018-07-31T09:29:25.457Z,971.73
2018-07-31T09:30:25.559Z,971.76
2018-07-31T09:31:25.574Z,971.74
2018-07-31T09:32:25.662Z,971.75
2018-07-31T09:33:25.688Z,971.76
2018-07-31T09:34:25.750Z,971.72
2018-07-31T09:35:25.827Z,971.74
2018-07-31T09:36:25.887Z,971.71
2018-07-31T09:37:26.066Z,971.70
2018-07-31T09:38:25.981Z,971.71
2018-07-31T09:39:26.038Z,971.70
2018-07-31T09:40:26.099Z,971.69
2018-07-31T09:41:26.156Z,971.67
2018-07-31T09:42:26.237Z,971.71
2018-07-31T09:43:26.268Z,971.70
2018-07-31T09:44:26.335Z,971.70
2018-07-31T09:45:26.398Z,971.71
2018-07-31T09:46:26.445Z,971.68
2018-07-31T09:47:26.521Z,971.66
2018-07-31T09:48:26.628Z,971.65
2018-07-31T09:49:26.616Z,971.66
2018-07-31T09:50:26.675Z,971.63
2018-07-31T09:51:26.732Z,971.66
2018-07-31T09:52:26.791Z,971.66
2018-07-31T09:53:26.895Z,971.66
2018-07-31T09:54:26.906Z,971.66
2018-07-31T09:55:26.964Z,971.66
2018-07-31T09:56:27.028Z,971.64
2018-07-31T09:57:27.080Z,971.66
2018-07-31T09:58:27.166Z,971.68
2018-07-31T09:59:27.194Z,971.64
2018-07-31T10:00:27.258Z,971.64
2018-07-31T10:01:27.310Z,971.67
2018-07-31T10:02:27.373Z,971.64
2018-07-31T10:03:27.455Z,971.69
2018-07-31T10:04:27.496Z,971.69
2018-07-31T10:05:27.545Z,971.67
2018-07-31T10:06:27.609Z,971.65
2018-07-31T10:07:27.659Z,971.68
2018-07-31T10:08:27.782Z,971.69
2018-07-31T10:09:27.774Z,971.76
2018-07-31T10:10:27.838Z,971.76
2018-07-31T10:11:27.889Z,971.72
2018-07-31T10:12:27.948Z,971.75
2018-07-31T10:13:28.055Z,971.78
2018-07-31T10:14:28.063Z,971.76
2018-07-31T10:15:28.121Z,971.75
2018-07-31T10:16:28.178Z,971.76
2018-07-31T10:17:28.240Z,971.78
2018-07-31T10:18:28.334Z,971.76
2018-07-31T10:19:28.352Z,971.72
2018-07-31T10:20:28.418Z,971.74
2018-07-31T10:21:28.468Z,971.71
2018-07-31T10:22:28.526Z,971.72
2018-07-31T10:23:28.616Z,971.72
2018-07-31T10:24:28.676Z,971.73
2018-07-31T10:25:28.702Z,971.73
2018-07-31T10:26:28.760Z,971.70
2018-07-31T10:27:28.821Z,971.71
2018-07-31T10:28:28.879Z,971.73
2018-07-31T10:29:28.960Z,971.71
2018-07-31T10:30:28.995Z,971.73
2018-07-31T10:31:29.053Z,971.69
2018-07-31T10:32:29.113Z,971.67
2018-07-31T10:33:29.171Z,971.68
2018-07-31T10:34:29.264Z,971.65
2018-07-31T10:35:29.289Z,971.64
2018-07-31T10:36:29.349Z,971.64
2018-07-31T10:37:29.426Z,971.60
2018-07-31T10:38:29.463Z,971.65
2018-07-31T10:39:29.572Z,971.62
2018-07-31T10:40:29.580Z,971.61
2018-07-31T10:41:29.645Z,971.63
2018-07-31T10:42:29.698Z,971.61
2018-07-31T10:43:29.756Z,971.57
2018-07-31T10:44:30.559Z,971.60
2018-07-31T10:45:29.878Z,971.59
2018-07-31T10:46:29.933Z,971.57
2018-07-31T10:47:29.990Z,971.55
2018-07-31T10:48:30.049Z,971.57
2018-07-31T10:49:30.140Z,971.56
2018-07-31T10:50:30.201Z,971.59
2018-07-31T10:51:30.227Z,971.54
2018-07-31T10:52:30.284Z,971.56
2018-07-31T10:53:30.342Z,971.56
2018-07-31T10:54:30.440Z,971.54
2018-07-31T10:55:30.457Z,971.55
2018-07-31T10:56:30.517Z,971.54
2018-07-31T10:57:30.576Z,971.57
2018-07-31T10:58:30.654Z,971.54
2018-07-31T10:59:30.758Z,971.52
2018-07-31T11:00:30.752Z,971.56
2018-07-31T11:01:30.816Z,971.54
2018-07-31T11:02:30.871Z,971.53
2018-07-31T11:03:30.928Z,971.51
2018-07-31T11:04:31.014Z,971.51
2018-07-31T11:05:31.044Z,971.44
2018-07-31T11:06:31.158Z,971.47
2018-07-31T11:07:31.164Z,971.46
2018-07-31T11:08:31.223Z,971.45
2018-07-31T11:09:31.278Z,971.45
2018-07-31T11:10:31.346Z,971.43
2018-07-31T11:11:31.423Z,971.45
2018-07-31T11:12:31.457Z,971.40
2018-07-31T11:13:31.517Z,971.44
2018-07-31T11:14:31.576Z,971.44
2018-07-31T11:15:31.636Z,971.39
2018-07-31T11:16:31.718Z,971.43
2018-07-31T11:17:31.766Z,971.43
2018-07-31T11:18:31.812Z,971.44
2018-07-31T11:19:31.868Z,971.41
2018-07-31T11:20:31.930Z,971.40
2018-07-31T11:21:32.014Z,971.36
2018-07-31T11:22:32.076Z,971.37
2018-07-31T11:23:32.109Z,971.39
2018-07-31T11:24:32.168Z,971.39
2018-07-31T11:25:32.223Z,971.34
2018-07-31T11:26:32.306Z,971.39
2018-07-31T11:27:32.390Z,971.32
2018-07-31T11:28:32.403Z,971.38
2018-07-31T11:29:32.463Z,971.35
2018-07-31T11:30:32.522Z,971.38
2018-07-31T11:31:32.627Z,971.35
2018-07-31T11:32:32.640Z,971.33
2018-07-31T11:33:32.701Z,971.34
2018-07-31T11:34:32.760Z,971.36
2018-07-31T11:35:32.817Z,971.31
2018-07-31T11:36:32.901Z,971.33
2018-07-31T11:37:32.960Z,971.32
2018-07-31T11:38:33.029Z,971.34
2018-07-31T11:39:33.054Z,971.35
2018-07-31T11:40:33.114Z,971.36
2018-07-31T11:41:33.172Z,971.33
2018-07-31T11:42:33.252Z,971.35
2018-07-31T11:43:33.293Z,971.31
2018-07-31T11:44:33.349Z,971.31
2018-07-31T11:45:33.408Z,971.32
2018-07-31T11:46:33.468Z,971.36
2018-07-31T11:47:33.552Z,971.31
2018-07-31T11:48:33.587Z,971.32
2018-07-31T11:49:33.646Z,971.29
2018-07-31T11:50:33.707Z,971.34
2018-07-31T11:51:33.768Z,971.32
2018-07-31T11:52:33.851Z,971.32
2018-07-31T11:53:33.887Z,971.25
2018-07-31T11:54:33.949Z,971.31
2018-07-31T11:55:34.009Z,971.27
2018-07-31T11:56:34.066Z,971.26
2018-07-31T11:57:34.158Z,971.27
2018-07-31T11:58:34.209Z,971.30
2018-07-31T11:59:34.247Z,971.30
2018-07-31T12:00:34.307Z,971.27
2018-07-31T12:01:34.376Z,971.28
2018-07-31T12:02:34.450Z,971.31
2018-07-31T12:03:35.305Z,971.27
2018-07-31T12:04:34.553Z,971.27
2018-07-31T12:05:34.615Z,971.28
2018-07-31T12:06:34.685Z,971.25
2018-07-31T12:07:34.738Z,971.25
2018-07-31T12:08:34.822Z,971.26
2018-07-31T12:09:34.864Z,971.27
2018-07-31T12:10:34.921Z,971.21
2018-07-31T12:11:34.991Z,971.22
2018-07-31T12:12:35.043Z,971.21
2018-07-31T12:13:35.129Z,971.17
2018-07-31T12:14:35.188Z,971.19
2018-07-31T12:15:35.232Z,971.19
2018-07-31T12:16:35.290Z,971.17
2018-07-31T12:17:35.349Z,971.13
2018-07-31T12:18:35.406Z,971.11
2018-07-31T12:19:35.491Z,971.10
2018-07-31T12:20:35.531Z,971.11
2018-07-31T12:21:35.589Z,971.12
2018-07-31T12:22:35.650Z,971.12
2018-07-31T12:23:35.730Z,971.09
2018-07-31T12:24:36.817Z,971.16
2018-07-31T12:25:35.833Z,971.13
2018-07-31T12:26:35.894Z,971.13
2018-07-31T12:27:35.954Z,971.13
2018-07-31T12:28:36.015Z,971.14
2018-07-31T12:29:36.102Z,971.09